Time;durP1;ratioP1;P1;durP2;ratioP2;P2;SDS_P1;SDS_P2;PMS_P1;PMS_P2;Temp;Humidity;BMP_temperature;BMP_pressure;BME280_temperature;BME280_humidity;BME280_pressure;Samples;Min_cycle;Max_cycle;Signal;HPM_P1;HPM_P2
2021/07/04 00:00:56;;;;;;;6.35;2.88;;;18.10;99.90;;;17.55;100.00;100933.59;4120391;28;20063;-79
2021/07/04 00:02:59;;;;;;;11.07;3.83;;;18.10;99.90;;;17.62;100.00;100937.13;4120358;28;20019;-80
2021/07/04 00:05:00;;;;;;;5.53;3.20;;;18.10;99.90;;;17.45;100.00;100930.44;4103134;29;20338;-80
2021/07/04 00:07:02;;;;;;;9.15;3.30;;;18.00;99.90;;;17.49;100.00;100930.88;4120420;28;20043;-80
2021/07/04 00:09:04;;;;;;;7.25;3.13;;;18.00;99.90;;;17.51;100.00;100915.47;4102990;29;20143;-80
2021/07/04 00:11:09;;;;;;;5.72;2.30;;;18.00;99.90;;;17.51;100.00;100921.63;4102942;29;20035;-80
2021/07/04 00:13:10;;;;;;;8.82;2.95;;;18.00;99.90;;;17.41;100.00;100899.81;4102833;28;20032;-80
2021/07/04 00:15:15;;;;;;;7.38;2.97;;;17.90;99.90;;;17.37;100.00;100897.75;4103182;29;20031;-80
2021/07/04 00:17:16;;;;;;;11.02;3.50;;;17.90;99.90;;;17.32;100.00;100897.53;4104589;28;20025;-80
2021/07/04 00:19:17;;;;;;;8.15;3.30;;;17.90;99.90;;;17.27;100.00;100898.09;4086961;29;20027;-80
2021/07/04 00:21:18;;;;;;;9.75;3.22;;;17.80;99.90;;;17.31;100.00;100899.38;4103175;29;20028;-79
2021/07/04 00:23:19;;;;;;;10.35;3.22;;;17.90;99.90;;;17.32;100.00;100898.38;4102926;29;20095;-81
2021/07/04 00:25:23;;;;;;;8.38;2.70;;;17.80;99.90;;;17.33;100.00;100901.81;4083337;29;20039;-80
2021/07/04 00:27:24;;;;;;;11.48;3.60;;;17.80;99.90;;;17.26;100.00;100907.16;4086537;29;20119;-81
2021/07/04 00:29:25;;;;;;;5.55;2.80;;;17.80;99.90;;;17.21;100.00;100893.56;4102941;29;20031;-80
2021/07/04 00:31:26;;;;;;;6.55;3.05;;;17.80;99.90;;;17.24;100.00;100893.16;4102874;29;20114;-80
2021/07/04 00:33:27;;;;;;;9.38;3.15;;;17.70;99.90;;;17.24;100.00;100889.66;4102800;29;20031;-80
2021/07/04 00:35:28;;;;;;;8.45;3.22;;;17.70;99.90;;;17.13;100.00;100888.38;4102538;29;20061;-80
2021/07/04 00:37:29;;;;;;;4.97;2.42;;;17.70;99.90;;;17.30;100.00;100892.38;4102997;29;20024;-80
2021/07/04 00:39:30;;;;;;;5.40;2.90;;;17.70;99.90;;;17.10;100.00;100883.44;4118740;28;20038;-79
2021/07/04 00:41:31;;;;;;;6.80;2.70;;;17.60;99.90;;;17.03;100.00;100874.56;4118896;28;20387;-81
2021/07/04 00:43:32;;;;;;;5.25;3.03;;;17.60;99.90;;;17.07;100.00;100875.84;4118387;28;20136;-79
2021/07/04 00:45:35;;;;;;;6.20;2.90;;;17.60;99.90;;;17.14;100.00;100871.38;4102823;29;20051;-80
2021/07/04 00:47:36;;;;;;;5.28;2.35;;;17.60;99.90;;;17.10;100.00;100865.59;4119814;28;20033;-81
2021/07/04 00:49:37;;;;;;;10.52;3.65;;;17.60;99.90;;;17.11;100.00;100861.91;4102492;29;20093;-80
2021/07/04 00:51:38;;;;;;;6.55;2.58;;;17.60;99.90;;;17.12;100.00;100860.06;4102448;29;20051;-80
2021/07/04 00:53:40;;;;;;;8.38;2.70;;;17.60;99.90;;;17.11;100.00;100863.78;4119616;28;20031;-80
2021/07/04 00:55:41;;;;;;;9.60;3.78;;;17.60;99.90;;;17.06;100.00;100844.84;4102563;29;20103;-79
2021/07/04 00:57:44;;;;;;;6.60;2.75;;;17.50;99.90;;;17.16;100.00;100858.66;4119495;28;20030;-80
2021/07/04 00:59:45;;;;;;;8.80;3.58;;;17.50;99.90;;;17.10;100.00;100843.47;4102735;29;20062;-80
2021/07/04 01:01:47;;;;;;;10.18;3.53;;;17.50;99.90;;;17.12;100.00;100863.56;4107002;28;20039;-80
2021/07/04 01:03:48;;;;;;;7.45;2.97;;;17.50;99.90;;;17.03;100.00;100861.25;4102308;29;20071;-80
2021/07/04 01:05:49;;;;;;;8.02;3.47;;;17.50;99.90;;;16.99;100.00;100855.47;4086008;29;20123;-80
2021/07/04 01:07:51;;;;;;;6.40;3.33;;;17.50;99.90;;;16.95;100.00;100850.75;4119523;28;20030;-79
2021/07/04 01:09:53;;;;;;;8.90;3.70;;;17.50;99.90;;;16.95;100.00;100862.22;4086062;29;20044;-81
2021/07/04 01:11:54;;;;;;;7.97;3.03;;;17.40;99.90;;;16.95;100.00;100853.41;4086504;29;20035;-80
2021/07/04 01:13:56;;;;;;;8.18;2.95;;;17.40;99.90;;;17.02;100.00;100862.28;4117897;28;20039;-81
2021/07/04 01:15:58;;;;;;;8.95;2.90;;;17.40;99.90;;;16.89;100.00;100846.19;4118057;28;20035;-78
2021/07/04 01:18:05;;;;;;;10.35;3.50;;;17.40;99.90;;;16.99;100.00;100860.78;4109652;28;20050;-81
2021/07/04 01:20:10;;;;;;;8.05;3.75;;;17.40;99.90;;;17.00;100.00;100858.97;4118670;28;20565;-79
2021/07/04 01:22:12;;;;;;;7.32;3.58;;;17.40;99.90;;;17.06;100.00;100863.50;4118169;28;20031;-80
2021/07/04 01:24:13;;;;;;;6.40;2.75;;;17.40;99.90;;;16.94;100.00;100843.75;4102188;28;20015;-80
2021/07/04 01:26:15;;;;;;;6.30;3.97;;;17.40;99.90;;;16.89;100.00;100832.88;4105818;28;20501;-80
2021/07/04 01:28:18;;;;;;;8.40;2.80;;;17.40;99.90;;;16.94;100.00;100844.56;4118259;28;20079;-80
2021/07/04 01:30:20;;;;;;;5.93;3.10;;;17.40;99.90;;;17.01;100.00;100841.97;4118216;28;20655;-79
2021/07/04 01:32:21;;;;;;;6.15;2.90;;;17.40;99.90;;;17.08;100.00;100840.19;4102205;29;20091;-79
2021/07/04 01:34:22;;;;;;;9.90;3.47;;;17.40;99.90;;;17.00;100.00;100816.31;4117729;28;20335;-79
2021/07/04 01:36:23;;;;;;;5.85;3.00;;;17.40;99.90;;;17.04;100.00;100825.59;4135352;28;20086;-80
2021/07/04 01:38:24;;;;;;;9.15;3.53;;;17.40;99.90;;;16.99;100.00;100820.81;4102134;29;20402;-78
2021/07/04 01:40:26;;;;;;;8.95;3.25;;;17.40;99.90;;;16.96;100.00;100815.91;4102167;29;20038;-78
2021/07/04 01:42:27;;;;;;;8.80;3.70;;;17.40;99.90;;;16.98;100.00;100813.03;4101846;29;20031;-78
2021/07/04 01:44:27;;;;;;;8.93;3.60;;;17.40;99.90;;;16.96;100.00;100805.25;4118106;28;20165;-80
2021/07/04 01:46:28;;;;;;;6.95;3.30;;;17.40;99.90;;;16.88;100.00;100784.06;4135485;28;20030;-80
2021/07/04 01:48:29;;;;;;;6.25;3.30;;;17.40;99.90;;;16.98;100.00;100786.38;4135348;28;20026;-80
2021/07/04 01:50:44;;;;;;;6.85;2.60;;;17.40;99.90;;;17.05;100.00;100793.38;4135137;28;20030;-80
2021/07/04 01:52:46;;;;;;;6.15;2.60;;;17.40;99.90;;;17.04;100.00;100793.59;4102316;28;20168;-80
2021/07/04 01:54:46;;;;;;;7.97;3.15;;;17.40;99.90;;;17.08;100.00;100792.19;4134051;28;20109;-80
2021/07/04 01:56:47;;;;;;;7.65;2.63;;;17.40;99.90;;;17.01;100.00;100780.66;4117993;28;20140;-79
2021/07/04 01:58:49;;;;;;;7.05;3.30;;;17.40;99.90;;;16.99;100.00;100788.03;4135138;28;20022;-80
2021/07/04 02:00:50;;;;;;;5.40;2.65;;;17.40;99.90;;;16.94;100.00;100777.13;4118185;28;20023;-80
2021/07/04 02:02:55;;;;;;;9.05;2.85;;;17.40;99.90;;;16.96;100.00;100777.78;4117843;28;20091;-79
2021/07/04 02:04:56;;;;;;;5.90;2.80;;;17.30;99.90;;;16.92;100.00;100776.50;4101863;28;20035;-80
2021/07/04 02:06:57;;;;;;;6.78;3.50;;;17.30;99.90;;;16.89;100.00;100771.56;4102040;29;20047;-80
2021/07/04 02:08:58;;;;;;;7.10;3.17;;;17.30;99.90;;;16.81;100.00;100774.41;4117949;28;20086;-79
2021/07/04 02:10:59;;;;;;;6.65;2.95;;;17.30;99.90;;;16.96;100.00;100769.78;4118054;28;20031;-79
2021/07/04 02:13:01;;;;;;;7.43;3.15;;;17.30;99.90;;;17.00;100.00;100768.34;4117630;28;20087;-79
2021/07/04 02:15:13;;;;;;;6.65;2.80;;;17.30;99.90;;;16.96;100.00;100777.78;4134188;28;20030;-79
2021/07/04 02:17:14;;;;;;;8.73;3.10;;;17.30;99.90;;;16.92;100.00;100771.19;4120284;28;20106;-79
2021/07/04 02:19:15;;;;;;;5.88;2.88;;;17.30;99.90;;;16.92;100.00;100769.34;4137041;28;20488;-79
2021/07/04 02:21:16;;;;;;;11.02;3.60;;;17.30;99.90;;;16.90;100.00;100778.56;4120650;28;20026;-79
2021/07/04 02:23:30;;;;;;;10.45;2.72;;;17.20;99.90;;;16.61;100.00;100779.59;4120847;28;20069;-79
2021/07/04 02:25:31;;;;;;;9.95;3.78;;;17.20;99.90;;;16.61;100.00;100784.13;4100214;28;20031;-79
2021/07/04 02:27:32;;;;;;;7.15;3.15;;;17.10;99.90;;;16.66;100.00;100782.50;4105995;28;20031;-79
2021/07/04 02:29:33;;;;;;;9.63;3.78;;;17.20;99.90;;;16.78;100.00;100790.78;4104700;28;20035;-78
2021/07/04 02:31:34;;;;;;;6.25;3.40;;;17.10;99.90;;;16.68;100.00;100784.97;4121868;28;20034;-79
2021/07/04 02:33:35;;;;;;;7.28;3.25;;;17.10;99.90;;;16.71;100.00;100777.41;4104720;28;20135;-79
2021/07/04 02:35:41;;;;;;;8.40;3.30;;;17.20;99.90;;;16.65;100.00;100774.69;4120401;28;20089;-79
2021/07/04 02:37:42;;;;;;;8.45;3.03;;;17.10;99.90;;;16.64;100.00;100773.03;4121813;28;20030;-79
2021/07/04 02:39:43;;;;;;;11.48;3.72;;;17.10;99.90;;;16.58;100.00;100778.13;4104620;28;20087;-79
2021/07/04 02:41:44;;;;;;;6.32;3.10;;;17.10;99.90;;;16.71;100.00;100773.91;4120528;28;20027;-79
2021/07/04 02:43:45;;;;;;;10.57;3.97;;;17.10;99.90;;;16.64;100.00;100767.72;4104227;28;20114;-79
2021/07/04 02:45:47;;;;;;;11.15;3.60;;;17.10;99.90;;;16.72;100.00;100764.94;4121749;28;20516;-80
2021/07/04 02:47:48;;;;;;;12.82;3.10;;;17.10;99.90;;;16.66;100.00;100771.84;4104456;28;20111;-80
2021/07/04 02:49:49;;;;;;;10.43;3.30;;;17.10;99.90;;;16.74;100.00;100763.69;4088636;29;20120;-80
2021/07/04 02:51:50;;;;;;;11.45;3.47;;;17.10;99.90;;;16.63;100.00;100750.94;4134460;28;20398;-79
2021/07/04 02:53:51;;;;;;;9.20;3.22;;;17.10;99.90;;;16.63;100.00;100750.09;4121615;28;20031;-80
2021/07/04 02:55:52;;;;;;;6.00;3.15;;;17.10;99.90;;;16.59;100.00;100747.84;4121482;28;20031;-79
2021/07/04 02:57:53;;;;;;;11.70;3.28;;;17.10;99.90;;;16.66;100.00;100744.38;4121343;28;20053;-79
2021/07/04 02:59:54;;;;;;;7.53;2.97;;;17.10;99.90;;;16.56;100.00;100745.56;4121362;28;20083;-80
2021/07/04 03:01:55;;;;;;;9.38;3.45;;;17.10;99.90;;;16.48;100.00;100743.03;4121594;28;20061;-80
2021/07/04 03:03:56;;;;;;;10.52;3.53;;;17.10;99.90;;;16.49;100.00;100739.31;4121500;28;20038;-80
2021/07/04 03:05:57;;;;;;;7.00;2.70;;;17.10;99.90;;;16.63;100.00;100732.28;4104108;28;20134;-79
2021/07/04 03:07:58;;;;;;;5.25;3.00;;;17.10;99.90;;;16.63;100.00;100734.13;4103974;28;20042;-80
2021/07/04 03:09:59;;;;;;;6.10;3.38;;;17.10;99.90;;;16.79;100.00;100736.47;4104315;28;20037;-80
2021/07/04 03:12:00;;;;;;;9.50;3.25;;;17.10;99.90;;;16.79;100.00;100733.78;4104243;28;20035;-79
2021/07/04 03:14:00;;;;;;;12.95;3.35;;;17.20;99.90;;;16.67;100.00;100732.69;4121113;28;20113;-79
2021/07/04 03:16:01;;;;;;;14.65;3.85;;;17.20;99.90;;;16.55;100.00;100735.09;4088033;29;20064;-79
2021/07/04 03:18:02;;;;;;;9.15;2.90;;;17.10;99.90;;;16.58;100.00;100730.19;4119963;28;20047;-80
2021/07/04 03:20:07;;;;;;;10.90;3.20;;;17.10;99.90;;;16.63;100.00;100744.78;4119965;28;20088;-78
2021/07/04 03:22:08;;;;;;;12.70;3.78;;;17.10;99.90;;;16.63;100.00;100728.81;4103976;28;20024;-80
2021/07/04 03:24:09;;;;;;;10.65;3.60;;;17.10;99.90;;;16.77;100.00;100735.84;4135672;28;20027;-79
2021/07/04 03:26:10;;;;;;;6.03;3.67;;;17.20;99.90;;;16.70;100.00;100733.13;4103878;29;20027;-79
2021/07/04 03:28:11;;;;;;;10.05;3.55;;;17.20;99.90;;;16.65;100.00;100742.75;4118806;28;20121;-80
2021/07/04 03:30:19;;;;;;;11.43;3.60;;;17.10;99.90;;;16.59;100.00;100731.84;4137146;28;20676;-80
2021/07/04 03:32:20;;;;;;;10.23;3.67;;;17.10;99.90;;;16.69;100.00;100738.69;4103520;29;20023;-79
2021/07/04 03:34:21;;;;;;;17.02;4.60;;;17.10;99.90;;;16.58;100.00;100724.03;4136967;28;20109;-81
2021/07/04 03:36:22;;;;;;;15.45;4.00;;;17.20;99.90;;;16.54;100.00;100736.13;4103601;29;20533;-81
2021/07/04 03:38:23;;;;;;;7.80;3.15;;;17.10;99.90;;;16.73;100.00;100726.59;4103608;29;20031;-81
2021/07/04 03:40:24;;;;;;;5.70;2.90;;;17.10;99.90;;;16.75;100.00;100727.25;4103502;29;20027;-80
2021/07/04 03:42:25;;;;;;;9.20;2.75;;;17.20;99.90;;;16.74;100.00;100720.25;4135417;28;20034;-81
2021/07/04 03:44:26;;;;;;;9.98;3.28;;;17.20;99.90;;;16.79;100.00;100733.78;4103502;29;20031;-81
2021/07/04 03:46:28;;;;;;;9.13;3.20;;;17.20;99.90;;;16.91;100.00;100729.56;4119692;28;20031;-81
2021/07/04 03:48:29;;;;;;;8.68;3.17;;;17.20;99.90;;;16.77;100.00;100723.34;4119559;28;20042;-81
2021/07/04 03:50:30;;;;;;;9.15;2.85;;;17.20;99.90;;;16.78;100.00;100713.53;4119332;28;20489;-80
2021/07/04 03:52:31;;;;;;;11.95;2.90;;;17.20;99.90;;;16.67;100.00;100716.72;4135465;28;20155;-81
2021/07/04 03:54:32;;;;;;;10.05;3.65;;;17.20;99.90;;;16.64;100.00;100725.09;4136629;28;20509;-81
2021/07/04 03:56:33;;;;;;;8.48;3.25;;;17.20;99.90;;;16.73;100.00;100739.91;4136670;28;20034;-80
2021/07/04 03:58:34;;;;;;;8.52;3.22;;;17.20;99.90;;;16.82;100.00;100738.72;4103118;29;20058;-81
2021/07/04 04:00:36;;;;;;;10.15;3.42;;;17.20;99.90;;;16.90;100.00;100720.78;4119292;28;20059;-81
2021/07/04 04:02:37;;;;;;;13.65;3.10;;;17.30;99.90;;;16.87;100.00;100718.50;4119136;28;20087;-81
2021/07/04 04:04:37;;;;;;;9.70;3.08;;;17.30;99.90;;;16.85;100.00;100717.03;4119217;28;20023;-81
2021/07/04 04:06:38;;;;;;;10.52;2.90;;;17.30;99.90;;;16.83;100.00;100717.25;4119448;28;20039;-81
2021/07/04 04:08:41;;;;;;;8.15;3.47;;;17.40;99.90;;;16.88;100.00;100719.28;4135391;28;20398;-79
2021/07/04 04:10:42;;;;;;;5.93;2.67;;;17.30;99.90;;;16.85;100.00;100714.38;4119342;28;20465;-80
2021/07/04 04:12:43;;;;;;;7.00;2.80;;;17.40;99.90;;;16.89;100.00;100713.78;4136246;28;20022;-80
2021/07/04 04:14:44;;;;;;;5.97;2.70;;;17.40;99.90;;;16.87;100.00;100696.34;4136434;28;20057;-80
2021/07/04 04:16:45;;;;;;;5.32;2.53;;;17.40;99.90;;;16.88;100.00;100695.31;4136506;28;20106;-80
2021/07/04 04:18:46;;;;;;;8.05;3.72;;;17.40;99.90;;;16.96;100.00;100690.66;4136042;28;20050;-81
2021/07/04 04:20:47;;;;;;;12.45;3.42;;;17.40;99.90;;;16.95;100.00;100697.00;4136268;28;20022;-81
2021/07/04 04:22:48;;;;;;;8.45;3.55;;;17.40;99.90;;;16.79;100.00;100688.50;4119105;28;20054;-81
2021/07/04 04:24:49;;;;;;;6.70;2.85;;;17.40;99.90;;;16.88;100.00;100700.66;4136020;28;20033;-81
2021/07/04 04:26:50;;;;;;;10.52;3.10;;;17.30;99.90;;;16.90;100.00;100702.13;4136430;28;20023;-81
2021/07/04 04:28:51;;;;;;;10.70;3.67;;;17.40;99.90;;;16.95;100.00;100696.19;4118657;28;20027;-81
2021/07/04 04:30:53;;;;;;;6.57;3.15;;;17.40;99.90;;;16.97;100.00;100707.44;4135981;28;20031;-81
2021/07/04 04:32:54;;;;;;;10.07;2.92;;;17.40;99.90;;;16.88;100.00;100700.66;4118830;28;20034;-82
2021/07/04 04:34:55;;;;;;;9.13;3.20;;;17.40;99.90;;;17.01;100.00;100712.22;4135925;28;20039;-80
2021/07/04 04:36:56;;;;;;;11.00;3.13;;;17.40;99.90;;;17.03;100.00;100710.16;4135960;28;20026;-82
2021/07/04 04:38:57;;;;;;;6.60;2.78;;;17.40;99.90;;;16.85;100.00;100723.19;4135889;28;20470;-80
2021/07/04 04:40:58;;;;;;;9.10;3.85;;;17.40;99.90;;;16.76;100.00;100720.88;4118669;28;20034;-81
2021/07/04 04:42:59;;;;;;;5.63;2.13;;;17.40;99.90;;;16.70;100.00;100706.50;4135895;28;20031;-80
2021/07/04 04:45:00;;;;;;;9.60;3.13;;;17.30;99.90;;;16.73;100.00;100705.28;4102715;28;20474;-80
2021/07/04 04:47:03;;;;;;;8.50;2.90;;;17.30;99.90;;;16.66;100.00;100713.25;4135674;28;20026;-81
2021/07/04 04:49:03;;;;;;;5.90;2.25;;;17.30;99.90;;;16.79;100.00;100715.97;4136006;28;20045;-80
2021/07/04 04:51:06;;;;;;;9.63;2.95;;;17.30;99.90;;;16.71;100.00;100718.81;4118320;28;20113;-81
2021/07/04 04:53:07;;;;;;;8.77;3.38;;;17.20;99.90;;;16.58;100.00;100727.53;4130340;28;20022;-81
2021/07/04 04:55:10;;;;;;;7.38;2.70;;;17.20;99.90;;;16.73;100.00;100719.44;4134512;28;20041;-80
2021/07/04 04:57:11;;;;;;;8.30;2.55;;;17.20;99.90;;;16.58;100.00;100716.88;4135700;28;20022;-80
2021/07/04 04:59:12;;;;;;;7.40;2.92;;;17.20;99.90;;;16.49;100.00;100694.06;4118586;28;20430;-80
2021/07/04 05:01:13;;;;;;;7.25;2.58;;;17.20;99.90;;;16.65;100.00;100716.09;4118441;28;20037;-82
2021/07/04 05:03:14;;;;;;;5.50;2.30;;;17.10;99.90;;;16.61;100.00;100709.53;4118480;28;20066;-80
2021/07/04 05:05:15;;;;;;;10.80;2.40;;;17.20;99.90;;;16.57;100.00;100698.44;4118625;28;20398;-79
2021/07/04 05:07:16;;;;;;;5.68;2.47;;;17.10;99.90;;;16.72;100.00;100711.66;4118504;28;20433;-81
2021/07/04 05:09:17;;;;;;;10.02;2.60;;;17.20;99.90;;;16.61;100.00;100705.00;4118498;28;20030;-81
2021/07/04 05:11:18;;;;;;;8.85;2.80;;;17.20;99.90;;;16.61;100.00;100709.53;4118302;28;20086;-81
2021/07/04 05:13:19;;;;;;;10.98;2.80;;;17.20;99.90;;;16.69;100.00;100710.19;4102261;29;20455;-81
2021/07/04 05:15:22;;;;;;;11.25;2.75;;;17.20;99.90;;;16.68;100.00;100700.56;4135613;28;20113;-82
2021/07/04 05:17:22;;;;;;;5.20;2.88;;;17.20;99.90;;;16.69;100.00;100696.88;4102108;29;20027;-81
2021/07/04 05:19:23;;;;;;;8.68;2.72;;;17.20;99.90;;;16.76;100.00;100704.88;4134378;28;20533;-82
2021/07/04 05:21:24;;;;;;;9.88;3.20;;;17.20;99.90;;;16.78;100.00;100711.69;4102271;29;20031;-81
2021/07/04 05:23:25;;;;;;;10.73;3.00;;;17.20;99.90;;;16.77;100.00;100695.88;4134217;28;20093;-81
2021/07/04 05:25:26;;;;;;;12.55;3.40;;;17.20;99.90;;;16.75;100.00;100684.63;4122873;28;20379;-80
2021/07/04 05:27:27;;;;;;;19.08;2.97;;;17.30;99.90;;;16.92;100.00;100699.25;4101851;29;20406;-80
2021/07/04 05:29:28;;;;;;;10.45;3.22;;;17.30;99.90;;;16.98;100.00;100707.28;4118532;28;20066;-79
2021/07/04 05:31:29;;;;;;;13.55;3.58;;;17.30;99.90;;;16.85;100.00;100691.22;4118415;28;20033;-79
2021/07/04 05:33:30;;;;;;;6.75;3.03;;;17.40;99.90;;;16.84;100.00;100694.09;4134165;28;20041;-80
2021/07/04 05:35:31;;;;;;;6.93;2.90;;;17.40;99.90;;;16.91;100.00;100693.09;4102100;29;20035;-79
2021/07/04 05:37:33;;;;;;;13.93;3.97;;;17.40;99.90;;;17.03;100.00;100696.00;4118157;28;20023;-79
2021/07/04 05:39:35;;;;;;;7.22;3.20;;;17.40;99.90;;;16.91;100.00;100692.25;4118315;28;20514;-80
2021/07/04 05:41:35;;;;;;;7.72;3.03;;;17.50;99.90;;;16.94;100.00;100697.19;4102196;29;20028;-81
2021/07/04 05:43:39;;;;;;;9.80;3.33;;;17.50;99.90;;;16.92;100.00;100680.59;4117946;28;20485;-80
2021/07/04 05:45:40;;;;;;;12.35;3.92;;;17.50;99.90;;;16.90;100.00;100682.63;4105574;28;20075;-81
2021/07/04 05:47:41;;;;;;;17.30;3.83;;;17.50;99.90;;;16.82;100.00;100669.47;4111770;28;20051;-81
2021/07/04 05:49:43;;;;;;;12.93;3.72;;;17.50;99.90;;;16.93;100.00;100693.72;4090629;29;20095;-80
2021/07/04 05:51:45;;;;;;;15.00;3.78;;;17.50;99.90;;;16.94;100.00;100683.88;4117033;28;20117;-81
2021/07/04 05:53:45;;;;;;;7.85;3.08;;;17.60;99.90;;;16.97;100.00;100672.81;4109290;28;20034;-79
2021/07/04 05:55:47;;;;;;;13.90;3.72;;;17.50;99.90;;;17.03;100.00;100674.69;4128043;28;20124;-80
2021/07/04 05:57:48;;;;;;;13.43;3.45;;;17.60;99.90;;;17.11;100.00;100677.19;4120873;28;20565;-80
2021/07/04 05:59:49;;;;;;;15.45;4.65;;;17.70;99.90;;;17.19;100.00;100663.69;4105051;29;20502;-79
2021/07/04 06:01:50;;;;;;;18.13;4.55;;;17.80;99.90;;;17.31;100.00;100670.06;4138543;28;20049;-80
2021/07/04 06:03:51;;;;;;;20.52;4.00;;;17.90;99.90;;;17.32;100.00;100666.38;4105109;29;20023;-79
2021/07/04 06:05:52;;;;;;;11.35;4.63;;;17.90;99.90;;;17.40;100.00;100671.53;4137265;28;20513;-79
2021/07/04 06:07:53;;;;;;;12.57;4.15;;;18.00;99.90;;;17.47;100.00;100676.88;4137152;28;20109;-79
2021/07/04 06:09:54;;;;;;;9.85;3.67;;;18.10;99.90;;;17.50;100.00;100658.59;4121336;28;20039;-78
2021/07/04 06:11:55;;;;;;;15.07;3.70;;;18.20;99.90;;;17.39;100.00;100661.88;4138163;28;20513;-80
2021/07/04 06:13:56;;;;;;;14.20;3.88;;;18.20;99.90;;;17.53;100.00;100658.19;4104906;29;20031;-80
2021/07/04 06:15:57;;;;;;;12.52;3.90;;;18.20;99.90;;;17.61;100.00;100660.72;4136854;28;20030;-80
2021/07/04 06:17:58;;;;;;;12.40;3.58;;;18.30;99.90;;;17.73;100.00;100652.09;4120740;28;20055;-79
2021/07/04 06:19:59;;;;;;;11.73;3.50;;;18.40;99.90;;;17.73;100.00;100660.09;4120680;28;20537;-78
2021/07/04 06:22:00;;;;;;;13.23;4.70;;;18.50;99.90;;;17.72;100.00;100666.47;4120781;28;20082;-78
2021/07/04 06:24:01;;;;;;;16.10;3.85;;;18.60;99.90;;;17.86;100.00;100660.91;4136613;28;20104;-79
2021/07/04 06:26:02;;;;;;;13.43;4.88;;;18.70;99.90;;;18.02;100.00;100663.19;4107790;28;20043;-79
2021/07/04 06:28:04;;;;;;;11.90;4.60;;;18.80;99.90;;;18.15;100.00;100659.69;4120587;28;20058;-80
2021/07/04 06:30:10;;;;;;;14.40;4.82;;;18.90;99.90;;;18.27;100.00;100662.56;4136776;28;20038;-79
2021/07/04 06:32:11;;;;;;;12.02;3.45;;;19.10;99.90;;;18.38;100.00;100661.91;4131513;28;20030;-78
2021/07/04 06:34:12;;;;;;;16.38;4.32;;;19.20;99.90;;;18.35;100.00;100657.81;4137492;28;20038;-77
2021/07/04 06:36:13;;;;;;;14.05;3.90;;;19.30;99.90;;;18.33;100.00;100649.19;4118076;28;20061;-77
2021/07/04 06:38:14;;;;;;;10.90;3.83;;;19.40;99.90;;;18.12;100.00;100654.78;4137551;28;20052;-78
2021/07/04 06:40:15;;;;;;;9.68;3.63;;;19.30;99.90;;;18.15;100.00;100657.03;4102476;29;20038;-77
2021/07/04 06:42:16;;;;;;;14.35;4.05;;;19.20;99.90;;;18.18;100.00;100659.28;4136239;28;20041;-77
2021/07/04 06:44:17;;;;;;;16.02;4.25;;;19.10;99.90;;;17.95;100.00;100645.56;4120291;28;20058;-76
2021/07/04 06:46:18;;;;;;;14.60;3.83;;;18.90;99.90;;;17.87;100.00;100653.75;4137811;28;20031;-77
2021/07/04 06:48:19;;;;;;;11.55;3.20;;;18.80;99.90;;;17.84;100.00;100651.47;4120185;28;20031;-77
2021/07/04 06:50:21;;;;;;;8.88;3.30;;;18.70;99.90;;;17.80;100.00;100653.72;4136350;28;20054;-77
2021/07/04 06:52:22;;;;;;;13.27;4.00;;;18.60;99.90;;;17.68;100.00;100642.06;4104280;29;20070;-77
2021/07/04 06:54:23;;;;;;;12.43;3.72;;;18.50;99.90;;;17.60;100.00;100661.75;4129118;28;20030;-77
2021/07/04 06:56:24;;;;;;;13.75;3.92;;;18.40;99.90;;;17.57;100.00;100651.47;4136552;28;20137;-77
2021/07/04 06:58:25;;;;;;;12.23;3.55;;;18.40;99.90;;;17.52;100.00;100651.25;4135833;28;20090;-77
2021/07/04 07:00:27;;;;;;;11.48;4.10;;;18.30;99.90;;;17.54;100.00;100646.53;4115195;28;20022;-77
2021/07/04 07:02:28;;;;;;;12.52;3.42;;;18.30;99.90;;;17.48;100.00;100652.66;4111497;28;20023;-76
2021/07/04 07:04:29;;;;;;;12.40;3.80;;;18.30;99.90;;;17.47;100.00;100643.00;4120455;28;20018;-76
2021/07/04 07:06:30;;;;;;;12.82;4.25;;;18.20;99.90;;;17.30;100.00;100648.94;4119590;28;20033;-76
2021/07/04 07:08:31;;;;;;;12.48;3.38;;;18.10;99.90;;;17.39;100.00;100655.72;4118723;28;20051;-76
2021/07/04 07:10:32;;;;;;;14.75;4.57;;;18.20;99.90;;;17.42;100.00;100653.47;4103608;29;20051;-76
2021/07/04 07:12:33;;;;;;;9.68;3.88;;;18.20;99.90;;;17.54;100.00;100641.22;4101982;29;20533;-76
2021/07/04 07:14:34;;;;;;;12.60;3.67;;;18.30;99.90;;;17.76;100.00;100654.38;4136734;28;20120;-77
2021/07/04 07:16:34;;;;;;;12.00;3.50;;;18.40;99.90;;;17.69;100.00;100660.50;4136901;28;20042;-76
2021/07/04 07:18:35;;;;;;;9.27;3.88;;;18.50;99.90;;;17.83;100.00;100647.19;4118893;28;20034;-77
2021/07/04 07:20:37;;;;;;;12.52;3.53;;;18.60;99.90;;;17.86;100.00;100666.25;4119166;28;20127;-77
2021/07/04 07:22:38;;;;;;;9.52;4.20;;;18.70;99.90;;;17.81;100.00;100658.06;4136880;28;20027;-75
2021/07/04 07:24:39;;;;;;;11.25;3.33;;;18.70;99.90;;;17.90;100.00;100656.00;4115068;28;20104;-77
2021/07/04 07:26:40;;;;;;;7.10;3.10;;;18.70;99.90;;;17.75;100.00;100658.03;4136775;28;20031;-76
2021/07/04 07:28:41;;;;;;;8.60;3.22;;;18.60;99.90;;;17.65;100.00;100666.47;4135884;28;20030;-75
2021/07/04 07:30:42;;;;;;;7.93;3.60;;;18.50;99.90;;;17.58;100.00;100653.13;4135164;28;20429;-74
2021/07/04 07:32:43;;;;;;;7.95;3.30;;;18.40;99.90;;;17.54;100.00;100643.88;4103368;29;20031;-76
2021/07/04 07:34:44;;;;;;;8.05;3.35;;;18.40;99.90;;;17.52;100.00;100645.91;4136505;28;20126;-77
2021/07/04 07:36:45;;;;;;;8.98;3.45;;;18.30;99.90;;;17.38;100.00;100654.88;4101810;29;20493;-77
2021/07/04 07:38:46;;;;;;;4.80;2.85;;;18.30;99.90;;;17.48;100.00;100647.31;4135740;28;20047;-76
2021/07/04 07:40:47;;;;;;;11.18;3.70;;;18.20;99.90;;;17.36;100.00;100656.94;4136513;28;20026;-76
2021/07/04 07:42:48;;;;;;;7.72;3.13;;;18.10;99.90;;;17.40;100.00;100658.19;4136333;28;20147;-76
2021/07/04 07:44:49;;;;;;;11.82;3.30;;;18.10;99.90;;;17.47;100.00;100663.53;4136525;28;20063;-77
2021/07/04 07:46:50;;;;;;;6.05;2.97;;;18.10;99.90;;;17.44;100.00;100645.28;4119030;28;20031;-77
2021/07/04 07:48:51;;;;;;;8.30;2.97;;;18.20;99.90;;;17.47;100.00;100651.00;4134563;28;20034;-76
2021/07/04 07:50:52;;;;;;;7.22;3.13;;;18.20;99.90;;;17.54;100.00;100643.88;4103063;29;20031;-76
2021/07/04 07:52:53;;;;;;;6.90;2.35;;;18.30;99.90;;;17.68;100.00;100650.06;4115634;28;20110;-76
2021/07/04 07:54:55;;;;;;;6.65;2.80;;;18.40;99.90;;;17.74;100.00;100646.53;4102979;28;20031;-76
2021/07/04 07:56:56;;;;;;;7.97;2.97;;;18.60;99.90;;;17.91;100.00;100653.13;4089807;29;20023;-77
2021/07/04 07:58:57;;;;;;;10.75;3.08;;;18.70;99.90;;;17.82;100.00;100645.53;4121348;28;20050;-79
2021/07/04 08:00:58;;;;;;;6.47;2.67;;;18.90;99.90;;;17.96;100.00;100631.16;4112134;28;20114;-76
2021/07/04 08:02:59;;;;;;;7.38;3.85;;;19.00;99.90;;;18.24;100.00;100642.44;4119104;28;20019;-77
2021/07/04 08:04:59;;;;;;;4.72;2.53;;;19.30;99.90;;;18.37;100.00;100626.34;4136024;28;20041;-77
2021/07/04 08:07:00;;;;;;;6.45;2.63;;;19.50;99.90;;;18.47;100.00;100639.28;4136414;28;20022;-77
2021/07/04 08:09:02;;;;;;;6.22;2.50;;;19.70;99.90;;;18.41;100.00;100640.94;4116701;28;20045;-77
2021/07/04 08:11:05;;;;;;;6.90;2.53;;;19.70;99.90;;;18.63;100.00;100641.53;4105280;28;20035;-76
2021/07/04 08:13:06;;;;;;;6.22;2.80;;;19.80;99.90;;;18.68;100.00;100637.19;4118109;28;20031;-75
2021/07/04 08:15:07;;;;;;;10.35;3.53;;;19.90;99.90;;;18.75;100.00;100634.50;4132088;28;20022;-77
2021/07/04 08:17:09;;;;;;;8.52;2.60;;;19.90;99.90;;;18.65;100.00;100634.94;4109714;28;20030;-78